Time;durP1;ratioP1;P1;durP2;ratioP2;P2;SDS_P1;SDS_P2;PMS_P1;PMS_P2;Temp;Humidity;BMP_temperature;BMP_pressure;BME280_temperature;BME280_humidity;BME280_pressure;Samples;Min_cycle;Max_cycle;Signal;HPM_P1;HPM_P2
2023/05/02 00:00:35;;;;;;;9.90;9.02;;;;;;;5.78;100.00;93098.78;2544149;23;20013;-86
2023/05/02 00:01:37;;;;;;;10.65;9.02;;;;;;;5.69;100.00;93091.22;2544392;23;20085;-85
2023/05/02 00:02:38;;;;;;;9.93;8.93;;;;;;;5.74;100.00;93096.13;2543920;23;20473;-85
2023/05/02 00:03:40;;;;;;;9.95;8.98;;;;;;;5.73;100.00;93091.22;2544540;23;20005;-84
2023/05/02 00:04:41;;;;;;;10.10;9.20;;;;;;;5.72;100.00;93097.66;2555919;23;20005;-84
2023/05/02 00:05:43;;;;;;;10.25;9.15;;;;;;;5.67;100.00;93095.41;2568556;23;20204;-85
2023/05/02 00:06:48;;;;;;;9.98;8.93;;;;;;;5.72;100.00;93092.38;2568031;23;20450;-86
2023/05/02 00:07:50;;;;;;;10.10;8.57;;;;;;;5.69;100.00;93098.44;2544398;23;20001;-84
2023/05/02 00:08:53;;;;;;;9.77;8.55;;;;;;;5.67;100.00;93096.19;2532445;23;20428;-85
2023/05/02 00:09:54;;;;;;;8.95;7.85;;;;;;;5.64;100.00;93101.47;2532619;23;20008;-85
2023/05/02 00:10:55;;;;;;;9.30;8.40;;;;;;;5.60;100.00;93090.88;2543427;23;20044;-85
2023/05/02 00:11:56;;;;;;;8.98;8.07;;;;;;;5.52;100.00;93098.09;2556341;23;20008;-86
2023/05/02 00:12:57;;;;;;;8.25;7.55;;;;;;;5.57;100.00;93104.91;2531521;23;20049;-85
2023/05/02 00:13:58;;;;;;;8.55;7.80;;;;;;;5.52;100.00;93102.66;2531524;23;20061;-86
2023/05/02 00:14:59;;;;;;;8.93;7.97;;;;;;;5.48;100.00;93100.00;2543512;23;20006;-86
2023/05/02 00:16:00;;;;;;;8.60;7.70;;;;;;;5.43;100.00;93100.41;2555904;23;20012;-85
2023/05/02 00:17:02;;;;;;;8.68;7.88;;;;;;;5.46;100.00;93101.53;2556304;23;20006;-85
2023/05/02 00:18:03;;;;;;;7.50;6.90;;;;;;;5.44;100.00;93101.91;2543710;23;20426;-85
2023/05/02 00:19:04;;;;;;;8.40;7.53;;;;;;;5.40;100.00;93098.53;2543701;23;20006;-83
2023/05/02 00:20:05;;;;;;;8.95;7.97;;;;;;;5.39;100.00;93101.56;2543076;23;20006;-85
2023/05/02 00:21:07;;;;;;;7.70;7.00;;;;;;;5.35;100.00;93092.84;2543877;23;20048;-85
2023/05/02 00:22:08;;;;;;;7.65;7.03;;;;;;;5.29;100.00;93092.50;2568630;23;20428;-85
2023/05/02 00:23:12;;;;;;;8.27;7.47;;;;;;;5.32;100.00;93090.97;2568567;23;20051;-84
2023/05/02 00:24:14;;;;;;;8.32;7.45;;;;;;;5.29;100.00;93095.16;2544261;23;20009;-85
2023/05/02 00:25:16;;;;;;;10.75;7.90;;;;;;;5.28;100.00;93090.97;2531553;23;20109;-86
2023/05/02 00:26:19;;;;;;;8.35;7.15;;;;;;;5.25;100.00;93097.03;2532172;23;20005;-84
2023/05/02 00:27:20;;;;;;;7.93;7.13;;;;;;;5.23;100.00;93096.69;2556570;23;20015;-85
2023/05/02 00:28:22;;;;;;;8.02;7.22;;;;;;;5.22;100.00;93103.88;2556459;23;20032;-85
2023/05/02 00:29:23;;;;;;;8.20;7.32;;;;;;;5.17;100.00;93098.94;2555886;23;20001;-86
2023/05/02 00:30:25;;;;;;;7.60;6.95;;;;;;;5.15;100.00;93100.47;2568442;23;20009;-84
2023/05/02 00:31:27;;;;;;;7.68;6.70;;;;;;;5.13;100.00;93102.72;2567772;23;20336;-85
2023/05/02 00:32:30;;;;;;;7.60;6.93;;;;;;;5.05;100.00;93096.72;2567965;23;20016;-84
2023/05/02 00:33:31;;;;;;;7.28;6.35;;;;;;;4.98;100.00;93108.06;2556437;23;20352;-86
2023/05/02 00:34:32;;;;;;;6.93;6.25;;;;;;;5.01;100.00;93102.00;2543937;23;20056;-85
2023/05/02 00:35:34;;;;;;;9.88;6.25;;;;;;;5.02;100.00;93103.50;2545180;23;20001;-86
2023/05/02 00:36:35;;;;;;;59.70;7.30;;;;;;;4.93;100.00;93110.34;2545283;23;20447;-85
2023/05/02 00:37:36;;;;;;;28.05;5.78;;;;;;;4.93;100.00;93105.78;2532449;23;20009;-86
2023/05/02 00:38:37;;;;;;;171.70;7.70;;;;;;;4.92;100.00;93109.59;2532421;23;20010;-87
2023/05/02 00:39:41;;;;;;;94.75;6.38;;;;;;;4.92;100.00;93111.47;2532267;23;20328;-85
2023/05/02 00:40:46;;;;;;;99.18;6.18;;;;;;;4.93;100.00;93108.44;2533179;23;20009;-85
2023/05/02 00:41:47;;;;;;;25.98;5.00;;;;;;;4.84;100.00;93112.63;2546412;23;20009;-86
2023/05/02 00:42:58;;;;;;;7.78;5.05;;;;;;;4.90;100.00;93116.38;2568504;23;20004;-85
2023/05/02 00:44:07;;;;;;;8.00;4.88;;;;;;;4.92;100.00;93117.53;2558087;23;20001;-85
2023/05/02 00:45:11;;;;;;;5.40;4.88;;;;;;;4.88;100.00;93105.44;2545794;23;20454;-86
2023/05/02 00:46:14;;;;;;;4.97;4.60;;;;;;;4.83;100.00;93111.09;2557276;23;20453;-85
2023/05/02 00:47:15;;;;;;;5.20;4.80;;;;;;;4.84;100.00;93104.66;2544233;23;20471;-85
2023/05/02 00:48:19;;;;;;;5.93;5.38;;;;;;;4.77;100.00;93110.72;2531875;23;20033;-85
2023/05/02 00:49:20;;;;;;;5.57;5.13;;;;;;;4.81;100.00;93111.47;2545406;23;20154;-85
2023/05/02 00:50:23;;;;;;;5.45;4.95;;;;;;;4.84;100.00;93108.06;2544319;23;20002;-85
2023/05/02 00:51:26;;;;;;;6.32;5.72;;;;;;;4.82;100.00;93107.69;2545360;23;20002;-85
2023/05/02 00:52:27;;;;;;;6.07;5.57;;;;;;;4.76;100.00;93109.19;2544618;23;20416;-85
2023/05/02 00:53:28;;;;;;;5.93;5.43;;;;;;;4.72;100.00;93108.44;2531861;23;20061;-85
2023/05/02 00:54:30;;;;;;;5.72;5.22;;;;;;;4.63;100.00;93105.41;2531905;23;20372;-85
2023/05/02 00:55:35;;;;;;;5.93;5.53;;;;;;;4.71;100.00;93101.63;2556919;23;20004;-85
2023/05/02 00:56:36;;;;;;;5.28;4.88;;;;;;;4.75;100.00;93097.84;2569250;23;20067;-85
2023/05/02 00:57:37;;;;;;;5.72;5.32;;;;;;;4.73;100.00;93107.31;2556846;23;20326;-86
2023/05/02 00:58:40;;;;;;;5.25;4.82;;;;;;;4.68;100.00;93107.69;2569091;23;20012;-85
2023/05/02 00:59:41;;;;;;;5.75;5.25;;;;;;;4.67;100.00;93104.28;2568920;23;20419;-86
2023/05/02 01:00:45;;;;;;;9.27;5.68;;;;;;;4.68;100.00;93103.16;2568189;23;20439;-85
2023/05/02 01:02:10;;;;;;;6.47;4.97;;;;;;;4.69;100.00;93109.19;2544630;23;20433;-85
2023/05/02 01:03:25;;;;;;;11.50;4.80;;;;;;;4.67;100.00;93100.88;2554504;23;20005;-86
2023/05/02 01:04:37;;;;;;;5.47;4.97;;;;;;;4.73;100.00;93109.94;2558559;23;20012;-85
2023/05/02 01:05:54;;;;;;;5.18;4.65;;;;;;;4.66;100.00;93107.31;2546245;23;20009;-85
2023/05/02 01:07:34;;;;;;;8.55;5.07;;;;;;;4.56;100.00;93108.81;2551244;23;20011;-85
2023/05/02 01:08:46;;;;;;;14.98;4.97;;;;;;;4.47;100.00;93109.16;2564232;23;20383;-86
2023/05/02 01:10:35;;;;;;;4.88;4.47;;;;;;;4.72;100.00;93113.75;2546325;23;20452;-85
2023/05/02 01:12:04;;;;;;;4.22;3.92;;;;;;;4.64;100.00;93112.22;2526682;23;20178;-85
2023/05/02 01:13:16;;;;;;;5.90;4.20;;;;;;;4.63;100.00;93105.41;2512280;23;20017;-85
2023/05/02 01:14:17;;;;;;;5.97;4.57;;;;;;;4.56;100.00;93106.16;2520866;23;19998;-85
2023/05/02 01:15:22;;;;;;;6.65;4.40;;;;;;;4.65;100.00;93103.88;2530483;23;20131;-84
2023/05/02 01:16:24;;;;;;;4.93;4.43;;;;;;;4.65;100.00;93105.78;2518643;23;20015;-84
2023/05/02 01:17:31;;;;;;;4.68;4.28;;;;;;;4.54;100.00;93100.50;2542131;23;20009;-85
2023/05/02 01:18:37;;;;;;;5.65;5.15;;;;;;;4.43;100.00;93107.66;2562282;23;20008;-85
2023/05/02 01:19:43;;;;;;;5.30;4.82;;;;;;;4.40;100.00;93111.84;2572893;23;20470;-85
2023/05/02 01:20:47;;;;;;;5.85;5.32;;;;;;;4.32;100.00;93112.94;2581370;23;20010;-84
2023/05/02 01:21:50;;;;;;;6.03;5.53;;;;;;;4.32;100.00;93112.94;2568468;23;20487;-86
2023/05/02 01:22:53;;;;;;;5.85;5.32;;;;;;;4.36;100.00;93113.72;2544545;23;20005;-85
2023/05/02 01:24:01;;;;;;;6.00;5.50;;;;;;;4.39;100.00;93118.25;2544011;23;20360;-84
2023/05/02 01:25:25;;;;;;;5.82;5.40;;;;;;;4.36;100.00;93111.06;2533995;23;20579;-85
2023/05/02 01:26:39;;;;;;;5.57;5.07;;;;;;;4.28;100.00;93112.94;2540668;23;20009;-85
2023/05/02 01:28:15;;;;;;;6.93;5.13;;;;;;;4.36;100.00;93113.72;2537292;23;20037;-85
2023/05/02 01:29:19;;;;;;;5.55;5.05;;;;;;;4.41;100.00;93108.03;2563071;23;20035;-84
2023/05/02 01:30:23;;;;;;;5.93;5.40;;;;;;;4.40;100.00;93108.44;2543889;23;20013;-86
2023/05/02 01:31:26;;;;;;;7.00;5.50;;;;;;;4.36;100.00;93119.00;2531951;23;20014;-85
2023/05/02 01:32:30;;;;;;;6.20;5.70;;;;;;;4.32;100.00;93110.31;2544152;23;20029;-86
2023/05/02 01:33:34;;;;;;;6.72;5.82;;;;;;;4.34;100.00;93109.91;2532708;23;20010;-85
2023/05/02 01:34:37;;;;;;;5.88;5.38;;;;;;;4.30;100.00;93112.56;2532223;23;20005;-86
2023/05/02 01:35:39;;;;;;;6.20;5.60;;;;;;;4.29;100.00;93111.78;2532128;23;20009;-85
2023/05/02 01:36:45;;;;;;;5.97;5.47;;;;;;;4.29;100.00;93118.97;2543435;23;20005;-85
2023/05/02 01:37:48;;;;;;;5.97;5.38;;;;;;;4.18;100.00;93123.50;2557001;23;20055;-85
2023/05/02 01:38:50;;;;;;;6.38;5.75;;;;;;;4.21;100.00;93112.16;2544049;23;20005;-86
2023/05/02 01:39:55;;;;;;;6.65;6.05;;;;;;;4.22;100.00;93114.44;2544550;23;20005;-86
2023/05/02 01:41:02;;;;;;;6.80;6.10;;;;;;;4.34;100.00;93110.66;2544460;23;20016;-86
2023/05/02 01:42:04;;;;;;;6.38;5.88;;;;;;;4.31;100.00;93110.69;2549354;23;20088;-85
2023/05/02 01:43:07;;;;;;;7.00;6.32;;;;;;;4.23;100.00;93110.66;2543146;23;20005;-86
2023/05/02 01:44:10;;;;;;;6.80;6.05;;;;;;;4.19;100.00;93114.44;2531805;23;20149;-85
2023/05/02 01:45:16;;;;;;;6.22;5.63;;;;;;;4.21;100.00;93114.81;2531942;23;20010;-86
2023/05/02 01:46:19;;;;;;;7.15;6.45;;;;;;;4.17;100.00;93122.75;2544244;23;20380;-85
2023/05/02 01:47:23;;;;;;;6.38;5.88;;;;;;;4.18;100.00;93126.16;2532229;23;20010;-86
2023/05/02 01:48:27;;;;;;;6.70;6.13;;;;;;;4.17;100.00;93119.31;2531823;23;20360;-87
2023/05/02 01:49:32;;;;;;;6.63;6.03;;;;;;;4.06;100.00;93111.38;2532980;23;20006;-86
2023/05/02 01:50:36;;;;;;;6.85;6.25;;;;;;;4.15;100.00;93121.59;2545692;23;20080;-86
2023/05/02 01:51:44;;;;;;;6.90;6.18;;;;;;;4.10;100.00;93114.03;2568279;23;20106;-84
2023/05/02 01:52:48;;;;;;;7.00;6.40;;;;;;;4.07;100.00;93122.72;2544817;23;20001;-86
2023/05/02 01:53:50;;;;;;;6.82;6.13;;;;;;;4.00;100.00;93118.94;2544664;23;20013;-86
2023/05/02 01:54:54;;;;;;;6.68;6.07;;;;;;;3.99;100.00;93116.63;2555000;23;20058;-86
2023/05/02 01:55:57;;;;;;;7.03;6.40;;;;;;;4.07;100.00;93117.41;2532129;23;20010;-86
2023/05/02 01:57:02;;;;;;;6.55;6.05;;;;;;;4.03;100.00;93122.69;2531918;23;20084;-87
2023/05/02 01:58:05;;;;;;;6.13;5.63;;;;;;;4.03;100.00;93122.69;2532701;23;20029;-85
2023/05/02 01:59:11;;;;;;;6.63;5.65;;;;;;;4.06;100.00;93121.97;2531805;23;20052;-85
2023/05/02 02:00:16;;;;;;;6.13;5.63;;;;;;;4.10;100.00;93117.44;2544202;23;20053;-85
2023/05/02 02:01:18;;;;;;;6.65;6.05;;;;;;;3.99;100.00;93114.75;2544686;23;20001;-84
2023/05/02 02:02:21;;;;;;;8.18;5.47;;;;;;;3.96;100.00;93114.75;2543149;23;20021;-86
2023/05/02 02:03:23;;;;;;;7.28;6.25;;;;;;;3.96;100.00;93118.16;2544470;23;20060;-85
2023/05/02 02:04:25;;;;;;;6.95;6.35;;;;;;;3.96;100.00;93107.56;2556419;23;20009;-86
2023/05/02 02:05:27;;;;;;;7.03;6.30;;;;;;;3.96;100.00;93112.13;2556205;23;20009;-85
2023/05/02 02:06:28;;;;;;;7.82;6.25;;;;;;;3.98;100.00;93113.25;2544246;23;20696;-86
2023/05/02 02:07:30;;;;;;;6.95;6.45;;;;;;;4.01;100.00;93109.84;2567980;23;20012;-85
2023/05/02 02:08:31;;;;;;;7.78;7.05;;;;;;;4.03;100.00;93112.88;2543755;23;20010;-86
2023/05/02 02:09:32;;;;;;;10.05;8.75;;;;;;;4.05;100.00;93112.50;2543477;23;20086;-86
2023/05/02 02:10:38;;;;;;;11.27;10.15;;;;;;;4.12;100.00;93119.69;2555876;23;20001;-85
2023/05/02 02:11:56;;;;;;;11.48;10.30;;;;;;;4.17;100.00;93114.03;2544514;23;20016;-85
2023/05/02 02:13:06;;;;;;;12.65;9.15;;;;;;;4.12;100.00;93114.41;2549748;23;20005;-85
2023/05/02 02:14:11;;;;;;;;;;;;;;;4.06;100.00;93113.28;2545274;23;20475;-85
2023/05/02 02:15:24;;;;;;;8.40;7.60;;;;;;;4.07;100.00;93120.06;2532508;23;19936;-86
2023/05/02 02:16:32;;;;;;;8.57;7.40;;;;;;;4.12;100.00;93127.63;2561056;23;20443;-85
2023/05/02 02:17:39;;;;;;;8.18;7.47;;;;;;;4.05;100.00;93117.81;2568253;23;20004;-85
2023/05/02 02:31:12;;;;;;;;;;;;;;;3.75;100.00;93132.06;2640203;21;20463;-86
2023/05/02 02:32:18;;;;;;;10.10;9.10;;;;;;;3.80;100.00;93133.56;2584042;23;19967;-86
2023/05/02 02:33:21;;;;;;;9.05;8.20;;;;;;;3.77;100.00;93129.03;2572799;23;20032;-85
2023/05/02 02:34:23;;;;;;;9.52;8.68;;;;;;;3.79;100.00;93124.91;2572049;23;20347;-86
2023/05/02 02:35:32;;;;;;;9.50;8.65;;;;;;;3.77;100.00;93124.50;2571589;23;20027;-86
2023/05/02 02:36:41;;;;;;;10.52;8.98;;;;;;;3.74;100.00;93125.25;2560350;23;20009;-86
2023/05/02 02:37:58;;;;;;;8.90;8.05;;;;;;;3.77;100.00;93129.78;2550380;23;20005;-87
2023/05/02 02:39:29;;;;;;;9.30;7.47;;;;;;;3.82;100.00;93128.69;2575169;23;20000;-85
2023/05/02 02:40:37;;;;;;;8.10;7.35;;;;;;;3.79;100.00;93118.84;2564864;23;20016;-86
2023/05/02 02:41:59;;;;;;;8.80;7.93;;;;;;;3.73;100.00;93128.25;2572951;23;20649;-86
2023/05/02 02:43:09;;;;;;;8.10;7.30;;;;;;;3.73;100.00;93131.69;2571666;23;20343;-87
2023/05/02 02:44:30;;;;;;;9.27;8.23;;;;;;;3.82;100.00;93133.97;2563411;23;20016;-87
2023/05/02 02:45:39;;;;;;;7.85;7.15;;;;;;;3.75;100.00;93133.94;2563497;23;20033;-87
2023/05/02 02:46:47;;;;;;;8.40;7.60;;;;;;;3.75;100.00;93133.94;2573335;23;20014;-86
2023/05/02 02:48:04;;;;;;;8.18;7.20;;;;;;;3.73;100.00;93130.91;2571333;23;20016;-87
2023/05/02 02:49:15;;;;;;;9.65;8.57;;;;;;;3.69;100.00;93133.53;2565890;23;20009;-86
2023/05/02 02:50:54;;;;;;;8.80;8.00;;;;;;;3.68;100.00;93128.59;2571799;23;20054;-86
2023/05/02 02:52:04;;;;;;;7.63;6.93;;;;;;;3.69;100.00;93138.06;2566739;23;20015;-87
2023/05/02 02:53:11;;;;;;;9.80;8.82;;;;;;;3.68;100.00;93139.94;2561039;23;20047;-86
2023/05/02 02:54:28;;;;;;;8.68;7.88;;;;;;;3.66;100.00;93144.09;2560417;23;20483;-87
2023/05/02 02:55:41;;;;;;;8.65;7.75;;;;;;;3.63;100.00;93142.94;2562186;23;20043;-85
2023/05/02 02:56:46;;;;;;;8.70;7.85;;;;;;;3.61;100.00;93139.94;2576450;22;20039;-87
2023/05/02 02:58:03;;;;;;;9.73;8.73;;;;;;;3.70;100.00;93144.88;2571330;23;20063;-86
2023/05/02 02:59:27;;;;;;;9.55;8.65;;;;;;;3.60;100.00;93149.00;2566311;23;20380;-86
2023/05/02 03:00:31;;;;;;;9.90;8.13;;;;;;;3.61;100.00;93149.75;2564636;23;20008;-87
2023/05/02 03:01:37;;;;;;;9.20;8.30;;;;;;;3.59;100.00;93157.25;2561029;23;20429;-87
2023/05/02 03:02:41;;;;;;;8.85;8.05;;;;;;;3.58;100.00;93158.41;2561098;23;20015;-85
2023/05/02 03:03:43;;;;;;;9.10;8.20;;;;;;;3.53;100.00;93152.34;2573221;22;20000;-86
2023/05/02 03:04:46;;;;;;;10.60;9.02;;;;;;;3.50;100.00;93153.06;2584984;23;20008;-85
2023/05/02 03:05:49;;;;;;;9.90;9.00;;;;;;;3.48;100.00;93154.56;2560056;23;20084;-86
2023/05/02 03:06:50;;;;;;;9.48;8.48;;;;;;;3.47;100.00;93153.06;2559809;23;20032;-86
2023/05/02 03:07:51;;;;;;;10.82;9.73;;;;;;;3.44;100.00;93153.81;2571222;23;20027;-85
2023/05/02 03:08:52;;;;;;;11.50;10.40;;;;;;;3.43;100.00;93166.25;2559444;23;20016;-86
2023/05/02 03:09:53;;;;;;;11.35;10.00;;;;;;;3.37;100.00;93157.16;2559314;23;20435;-86
2023/05/02 03:10:54;;;;;;;11.10;10.07;;;;;;;3.42;100.00;93159.44;2572062;23;20478;-87
2023/05/02 03:11:58;;;;;;;11.88;10.30;;;;;;;3.35;100.00;93153.38;2571760;23;20000;-85
2023/05/02 03:12:59;;;;;;;11.25;10.02;;;;;;;3.40;100.00;93158.31;2547885;23;20005;-86
2023/05/02 03:14:00;;;;;;;10.68;9.68;;;;;;;3.35;100.00;93159.41;2558897;23;20104;-86
2023/05/02 03:15:31;;;;;;;13.23;10.13;;;;;;;3.40;100.00;93159.06;2571366;23;20028;-85
2023/05/02 03:16:37;;;;;;;10.05;9.07;;;;;;;3.46;100.00;93162.84;2565509;23;20030;-86
2023/05/02 03:17:38;;;;;;;11.75;10.05;;;;;;;3.44;100.00;93169.66;2572574;23;20004;-86
2023/05/02 03:18:39;;;;;;;12.00;10.18;;;;;;;3.39;100.00;93164.72;2559165;23;20152;-87
2023/05/02 03:19:41;;;;;;;10.75;9.75;;;;;;;3.37;100.00;93165.06;2546697;23;20335;-86
2023/05/02 03:20:42;;;;;;;11.63;10.43;;;;;;;3.37;100.00;93162.44;2546873;23;20407;-86
2023/05/02 03:21:44;;;;;;;12.18;10.88;;;;;;;3.34;100.00;93165.06;2546995;23;20009;-84
2023/05/02 03:22:46;;;;;;;15.20;10.93;;;;;;;3.33;100.00;93161.66;2546723;23;20005;-86
2023/05/02 03:23:47;;;;;;;11.05;9.98;;;;;;;3.45;100.00;93157.94;2558624;23;20005;-85
2023/05/02 03:24:48;;;;;;;11.15;9.95;;;;;;;3.43;100.00;93168.91;2558345;23;20008;-87
2023/05/02 03:25:50;;;;;;;13.07;11.68;;;;;;;3.40;100.00;93168.88;2559118;23;20436;-85
2023/05/02 03:26:55;;;;;;;11.77;10.57;;;;;;;3.40;100.00;93172.25;2558615;23;19997;-85
2023/05/02 03:27:57;;;;;;;11.65;10.45;;;;;;;3.33;100.00;93169.56;2560255;23;20009;-87
2023/05/02 03:28:58;;;;;;;11.40;10.20;;;;;;;3.34;100.00;93173.75;2558258;23;20000;-86
2023/05/02 03:29:59;;;;;;;11.32;10.23;;;;;;;3.31;100.00;93163.91;2546475;23;20392;-86
2023/05/02 03:31:00;;;;;;;11.80;10.50;;;;;;;3.28;100.00;93175.19;2558994;23;20004;-86
2023/05/02 03:32:01;;;;;;;12.10;10.70;;;;;;;3.35;100.00;93163.94;2543773;23;20467;-86
2023/05/02 03:33:06;;;;;;;12.48;10.95;;;;;;;3.37;100.00;93173.00;2556663;23;20009;-86
2023/05/02 03:34:07;;;;;;;12.80;11.50;;;;;;;3.35;100.00;93164.69;2568380;23;20015;-86
2023/05/02 03:35:08;;;;;;;12.00;10.80;;;;;;;3.43;100.00;93170.78;2544095;23;20471;-86
2023/05/02 03:36:10;;;;;;;11.48;10.27;;;;;;;3.36;100.00;93166.19;2543720;23;20028;-86
2023/05/02 03:37:12;;;;;;;13.32;11.43;;;;;;;3.30;100.00;93166.94;2555751;23;20083;-88
2023/05/02 03:38:15;;;;;;;11.13;10.02;;;;;;;3.39;100.00;93167.38;2568212;23;20005;-85
2023/05/02 03:39:16;;;;;;;11.38;10.27;;;;;;;3.34;100.00;93170.34;2556839;23;20008;-86
2023/05/02 03:40:20;;;;;;;13.48;10.95;;;;;;;3.47;100.00;93172.31;2555732;23;20005;-86
2023/05/02 03:41:21;;;;;;;14.60;11.95;;;;;;;3.41;100.00;93171.13;2557634;23;20015;-86
2023/05/02 03:42:25;;;;;;;12.63;11.32;;;;;;;3.35;100.00;93179.78;2555876;23;20004;-86
2023/05/02 03:43:26;;;;;;;12.45;11.23;;;;;;;3.36;100.00;93174.13;2544664;23;20005;-86
2023/05/02 03:44:27;;;;;;;12.90;11.60;;;;;;;3.37;100.00;93175.63;2544167;23;20005;-86
2023/05/02 03:45:28;;;;;;;15.50;12.32;;;;;;;3.38;100.00;93184.31;2543698;23;20012;-86
2023/05/02 03:46:29;;;;;;;12.38;11.18;;;;;;;3.41;100.00;93181.69;2544265;23;20012;-85
2023/05/02 03:47:30;;;;;;;13.02;11.73;;;;;;;3.40;100.00;93188.13;2543297;23;20013;-85
2023/05/02 03:48:31;;;;;;;12.63;11.30;;;;;;;3.38;100.00;93186.97;2543147;23;20116;-87
2023/05/02 03:49:36;;;;;;;12.80;11.40;;;;;;;3.40;100.00;93177.56;2555837;23;20084;-85
2023/05/02 03:50:38;;;;;;;13.60;11.25;;;;;;;3.39;100.00;93191.91;2557183;23;20023;-86
2023/05/02 03:51:39;;;;;;;12.95;11.63;;;;;;;3.41;100.00;93187.00;2556328;23;20009;-86
2023/05/02 03:52:40;;;;;;;13.20;11.80;;;;;;;3.39;100.00;93189.25;2556370;23;20422;-86
2023/05/02 03:53:41;;;;;;;13.32;12.02;;;;;;;3.43;100.00;93191.91;2556514;23;20013;-86
2023/05/02 03:54:42;;;;;;;13.75;12.10;;;;;;;3.43;100.00;93192.69;2542891;23;20084;-86
2023/05/02 03:55:44;;;;;;;13.18;11.77;;;;;;;3.44;100.00;93199.47;2543304;23;20048;-86
2023/05/02 03:56:45;;;;;;;14.32;12.80;;;;;;;3.45;100.00;93194.94;2556332;23;20503;-87
2023/05/02 03:57:47;;;;;;;12.93;11.63;;;;;;;3.37;100.00;93201.31;2556234;23;20040;-87
2023/05/02 03:58:48;;;;;;;14.35;12.85;;;;;;;3.41;100.00;93197.56;2556088;23;20047;-86
2023/05/02 03:59:49;;;;;;;13.13;11.82;;;;;;;3.59;100.00;93208.22;2555889;23;20087;-86
2023/05/02 04:00:53;;;;;;;14.70;13.20;;;;;;;3.57;100.00;93205.22;2580232;23;20082;-87
2023/05/02 04:01:54;;;;;;;15.30;12.95;;;;;;;3.60;100.00;93209.00;2568022;23;20035;-84
2023/05/02 04:02:57;;;;;;;13.45;11.60;;;;;;;3.59;100.00;93210.13;2544070;23;20449;-87
2023/05/02 04:03:59;;;;;;;14.90;11.63;;;;;;;3.57;100.00;93207.09;2556738;23;20004;-86
2023/05/02 04:05:00;;;;;;;14.13;11.85;;;;;;;3.61;100.00;93203.34;2555631;23;20083;-85
2023/05/02 04:06:01;;;;;;;15.95;14.35;;;;;;;3.73;100.00;93204.91;2543097;23;20345;-87
2023/05/02 04:07:02;;;;;;;15.30;13.70;;;;;;;3.77;100.00;93205.69;2543832;23;20081;-86
2023/05/02 04:08:04;;;;;;;14.60;13.10;;;;;;;3.81;100.00;93216.28;2556406;23;20005;-86
2023/05/02 04:09:05;;;;;;;15.38;13.77;;;;;;;3.85;100.00;93212.53;2556269;23;20009;-86
2023/05/02 04:10:06;;;;;;;14.70;13.30;;;;;;;3.91;100.00;93215.59;2556074;23;19997;-85
2023/05/02 04:11:07;;;;;;;17.30;14.07;;;;;;;4.00;100.00;93213.38;2568818;23;20055;-87
2023/05/02 04:12:09;;;;;;;15.35;13.75;;;;;;;3.98;100.00;93218.25;2555440;23;20005;-85
2023/05/02 04:13:11;;;;;;;17.25;13.77;;;;;;;4.00;100.00;93219.41;2556111;23;20092;-87
2023/05/02 04:14:12;;;;;;;17.08;14.75;;;;;;;4.02;100.00;93217.16;2555850;23;20005;-87
2023/05/02 04:15:15;;;;;;;16.90;14.43;;;;;;;4.07;100.00;93225.84;2555308;23;20096;-86
2023/05/02 04:16:16;;;;;;;15.73;14.00;;;;;;;4.10;100.00;93227.78;2556036;23;20005;-87
2023/05/02 04:17:20;;;;;;;15.95;14.20;;;;;;;4.15;100.00;93232.69;2555660;23;20001;-86
2023/05/02 04:18:22;;;;;;;16.83;15.02;;;;;;;4.17;100.00;93236.50;2556925;23;20008;-86
2023/05/02 04:19:23;;;;;;;18.75;14.43;;;;;;;4.13;100.00;93229.69;2551318;23;20274;-85
2023/05/02 04:20:25;;;;;;;18.83;15.00;;;;;;;4.20;100.00;93241.03;2563422;23;20036;-87
2023/05/02 04:21:26;;;;;;;15.90;14.20;;;;;;;4.28;100.00;93233.88;2553733;23;20302;-86
2023/05/02 04:22:27;;;;;;;14.93;13.15;;;;;;;4.29;100.00;93236.16;2542218;23;20013;-86
2023/05/02 04:23:29;;;;;;;14.88;13.30;;;;;;;4.34;100.00;93242.97;2542050;23;20065;-87
2023/05/02 04:24:32;;;;;;;15.68;12.98;;;;;;;4.34;100.00;93236.94;2553351;23;20448;-86
2023/05/02 04:25:33;;;;;;;15.48;13.68;;;;;;;4.38;100.00;93243.00;2567818;23;20077;-85
2023/05/02 04:26:35;;;;;;;15.80;14.10;;;;;;;4.37;100.00;93242.22;2554770;23;20013;-87
2023/05/02 04:27:37;;;;;;;13.98;12.57;;;;;;;4.40;100.00;93241.50;2542597;23;20006;-86
2023/05/02 04:28:38;;;;;;;14.05;12.43;;;;;;;4.40;100.00;93243.38;2567039;22;20413;-86
2023/05/02 04:29:39;;;;;;;15.68;13.98;;;;;;;4.36;100.00;93242.63;2578283;23;20004;-85
2023/05/02 04:30:40;;;;;;;14.32;12.90;;;;;;;4.42;100.00;93249.06;2565304;23;20023;-86
2023/05/02 04:31:43;;;;;;;14.82;13.32;;;;;;;4.42;100.00;93247.16;2553358;23;20455;-86
2023/05/02 04:32:46;;;;;;;13.15;11.85;;;;;;;4.47;100.00;93246.03;2566195;22;20036;-85
2023/05/02 04:33:47;;;;;;;14.43;12.93;;;;;;;4.48;100.00;93244.94;2578243;23;20011;-86
2023/05/02 04:34:48;;;;;;;13.27;12.02;;;;;;;4.51;100.00;93244.91;2564958;23;20398;-86
2023/05/02 04:35:49;;;;;;;14.75;13.10;;;;;;;4.48;100.00;93248.34;2552525;23;20640;-85
2023/05/02 04:36:51;;;;;;;15.25;13.65;;;;;;;4.58;100.00;93246.09;2540413;23;20012;-85
2023/05/02 04:37:52;;;;;;;17.15;13.50;;;;;;;4.49;100.00;93255.13;2553283;23;20008;-86
2023/05/02 04:38:53;;;;;;;14.07;12.75;;;;;;;4.55;100.00;93248.34;2542245;23;20437;-85
2023/05/02 04:39:57;;;;;;;14.85;13.30;;;;;;;4.59;100.00;93252.91;2555139;23;20012;-85
2023/05/02 04:41:01;;;;;;;13.77;12.32;;;;;;;4.64;100.00;93241.94;2555695;23;20035;-86
2023/05/02 04:42:02;;;;;;;14.43;13.02;;;;;;;4.72;100.00;93251.41;2544771;23;20005;-86
2023/05/02 04:43:04;;;;;;;14.75;13.20;;;;;;;4.68;100.00;93253.28;2542287;23;20361;-85
2023/05/02 04:44:05;;;;;;;14.32;12.88;;;;;;;4.72;100.00;93251.41;2554770;23;20016;-86
2023/05/02 04:45:06;;;;;;;17.02;15.00;;;;;;;4.82;100.00;93253.31;2554915;23;20016;-86
2023/05/02 04:46:07;;;;;;;15.55;13.90;;;;;;;4.82;100.00;93253.31;2555306;23;20356;-86
2023/05/02 04:47:08;;;;;;;15.02;13.60;;;;;;;4.90;100.00;93251.44;2555581;23;20016;-86
2023/05/02 04:48:09;;;;;;;16.27;14.60;;;;;;;4.91;100.00;93261.66;2542452;23;20454;-85
2023/05/02 04:49:11;;;;;;;16.58;14.88;;;;;;;4.96;100.00;93258.66;2555249;23;20051;-85
2023/05/02 04:50:12;;;;;;;16.00;14.43;;;;;;;4.91;100.00;93261.66;2566607;23;20004;-86
2023/05/02 04:51:13;;;;;;;14.80;13.30;;;;;;;4.85;100.00;93255.22;2554267;23;20096;-85
2023/05/02 04:52:15;;;;;;;15.48;14.00;;;;;;;4.89;100.00;93255.25;2542554;23;20547;-86
2023/05/02 04:53:16;;;;;;;15.75;14.15;;;;;;;4.94;100.00;93263.56;2542192;23;20006;-87
2023/05/02 04:54:17;;;;;;;18.38;15.02;;;;;;;4.94;100.00;93257.53;2562200;23;20001;-86
2023/05/02 04:55:20;;;;;;;16.55;13.57;;;;;;;4.88;100.00;93256.38;2575133;23;20090;-87
2023/05/02 04:56:22;;;;;;;14.32;12.93;;;;;;;4.90;100.00;93257.50;2565891;23;19996;-88
2023/05/02 04:57:24;;;;;;;14.85;13.38;;;;;;;4.88;100.00;93264.31;2562494;23;20008;-86
2023/05/02 04:58:26;;;;;;;13.68;12.27;;;;;;;4.85;100.00;93260.53;2560516;23;20061;-86
2023/05/02 04:59:27;;;;;;;15.95;14.45;;;;;;;4.84;100.00;93256.38;2559585;23;20036;-86
2023/05/02 05:00:29;;;;;;;15.52;14.02;;;;;;;4.85;100.00;93262.41;2546933;23;20009;-86
2023/05/02 05:01:31;;;;;;;15.13;13.63;;;;;;;4.85;100.00;93265.06;2546856;23;20009;-86
2023/05/02 05:02:32;;;;;;;14.73;12.73;;;;;;;4.82;100.00;93263.91;2545909;23;20113;-86
2023/05/02 05:03:33;;;;;;;14.60;13.10;;;;;;;4.84;100.00;93266.22;2556080;23;20012;-86
2023/05/02 05:04:34;;;;;;;12.93;11.75;;;;;;;4.88;100.00;93265.09;2556167;23;20036;-84
2023/05/02 05:05:35;;;;;;;13.43;12.23;;;;;;;5.02;100.00;93272.28;2557376;23;20005;-85
2023/05/02 05:06:36;;;;;;;13.25;11.95;;;;;;;5.08;100.00;93267.38;2570176;23;20023;-86
2023/05/02 05:07:38;;;;;;;14.07;12.68;;;;;;;5.12;100.00;93268.13;2570425;23;20011;-86
2023/05/02 05:08:39;;;;;;;14.10;12.80;;;;;;;5.09;100.00;93269.63;2567459;23;20009;-85
2023/05/02 05:09:41;;;;;;;14.40;12.98;;;;;;;5.04;100.00;93268.13;2554485;23;20005;-86
2023/05/02 05:10:42;;;;;;;14.35;12.98;;;;;;;5.05;100.00;93274.19;2541828;23;20395;-84
2023/05/02 05:11:45;;;;;;;14.15;12.75;;;;;;;4.98;100.00;93268.88;2553989;23;20001;-86
2023/05/02 05:12:46;;;;;;;14.95;13.35;;;;;;;4.99;100.00;93276.44;2566621;23;20035;-85